createdAt,value
2019-01-16T00:01:14.191Z,7.20
2019-01-16T00:03:50.382Z,10.30
2019-01-16T00:06:37.408Z,6.70
2019-01-16T00:09:35.774Z,6.53
2019-01-16T00:12:14.139Z,8.20
2019-01-16T00:14:57.656Z,6.30
2019-01-16T00:17:53.517Z,4.37
2019-01-16T00:20:40.551Z,9.50
2019-01-16T00:23:29.744Z,8.87
2019-01-16T00:26:06.896Z,6.00
2019-01-16T00:28:57.167Z,6.57
2019-01-16T00:32:07.112Z,5.10
2019-01-16T00:34:54.426Z,5.30
2019-01-16T00:37:38.014Z,7.93
2019-01-16T00:40:25.066Z,6.67
2019-01-16T00:43:21.418Z,3.40
2019-01-16T00:46:19.361Z,8.13
2019-01-16T00:49:06.363Z,3.20
2019-01-16T00:52:02.446Z,5.23
2019-01-16T00:55:10.666Z,4.50
2019-01-16T00:57:58.208Z,5.17
2019-01-16T01:01:03.324Z,6.00
2019-01-16T01:03:50.310Z,3.40
2019-01-16T01:06:37.394Z,6.53
2019-01-16T01:09:24.851Z,5.83
2019-01-16T01:12:17.883Z,6.63
2019-01-16T01:15:05.265Z,5.73
2019-01-16T01:17:51.272Z,4.67
2019-01-16T01:20:30.636Z,3.93
2019-01-16T01:23:17.633Z,5.60
2019-01-16T01:26:10.896Z,3.27
2019-01-16T01:29:00.640Z,5.53
2019-01-16T01:31:50.730Z,7.13
2019-01-16T01:34:28.648Z,5.03
2019-01-16T01:37:07.214Z,4.57
2019-01-16T01:39:56.948Z,6.23
2019-01-16T01:42:48.493Z,4.40
2019-01-16T01:45:34.432Z,5.43
2019-01-16T01:48:27.555Z,5.93
2019-01-16T01:51:17.548Z,5.53
2019-01-16T01:54:13.466Z,5.20
2019-01-16T01:56:55.457Z,6.70
2019-01-16T02:00:00.668Z,4.03
2019-01-16T02:03:02.997Z,4.13
2019-01-16T02:05:56.269Z,6.20
2019-01-16T02:08:38.450Z,8.23
2019-01-16T02:11:24.390Z,4.90
2019-01-16T02:14:14.500Z,5.47
2019-01-16T02:17:10.610Z,7.77
2019-01-16T02:20:06.590Z,13.20
2019-01-16T02:22:53.570Z,4.57
2019-01-16T02:25:58.692Z,6.33
2019-01-16T02:28:45.649Z,9.73
2019-01-16T02:31:35.546Z,5.47
2019-01-16T02:34:18.307Z,8.37
2019-01-16T02:36:59.562Z,5.70
2019-01-16T02:39:55.807Z,6.47
2019-01-16T02:42:47.106Z,5.87
2019-01-16T02:45:34.939Z,8.23
2019-01-16T02:48:31.205Z,9.13
2019-01-16T02:51:21.371Z,6.17
2019-01-16T02:54:08.337Z,4.97
2019-01-16T02:56:55.348Z,4.17
2019-01-16T02:59:48.534Z,4.33
2019-01-16T03:02:32.027Z,9.43
2019-01-16T03:05:24.969Z,8.70
2019-01-16T03:08:21.206Z,6.17
2019-01-16T03:11:20.164Z,8.03
2019-01-16T03:14:16.110Z,6.70
2019-01-16T03:17:01.647Z,6.97
2019-01-16T03:19:45.635Z,6.73
2019-01-16T03:22:36.215Z,6.90
2019-01-16T03:25:30.245Z,8.53
2019-01-16T03:28:35.072Z,7.40
2019-01-16T03:31:28.500Z,6.37
2019-01-16T03:34:14.222Z,6.63
2019-01-16T03:37:01.229Z,6.43
2019-01-16T03:39:42.143Z,6.77
2019-01-16T03:42:27.843Z,7.63
2019-01-16T03:45:27.189Z,8.17
2019-01-16T03:48:29.351Z,7.33
2019-01-16T03:51:22.019Z,5.93
2019-01-16T03:54:11.771Z,7.07
2019-01-16T03:56:57.360Z,7.33
2019-01-16T03:59:49.763Z,5.23
2019-01-16T04:02:46.095Z,7.90
2019-01-16T04:05:42.840Z,6.47
2019-01-16T04:08:32.876Z,5.60
2019-01-16T04:11:30.581Z,6.40
2019-01-16T04:14:21.513Z,9.47
2019-01-16T04:17:25.063Z,8.83
2019-01-16T04:20:14.990Z,8.90
2019-01-16T04:23:02.017Z,8.73
2019-01-16T04:25:48.009Z,9.03
2019-01-16T04:28:20.455Z,7.23
2019-01-16T04:31:06.353Z,6.40
2019-01-16T04:34:11.731Z,9.57
2019-01-16T04:36:57.264Z,9.50
2019-01-16T04:39:43.194Z,11.77
2019-01-16T04:42:46.133Z,6.23
2019-01-16T04:45:35.890Z,6.57
2019-01-16T04:48:28.286Z,7.97
2019-01-16T04:51:21.258Z,5.40
2019-01-16T04:54:20.893Z,8.30
2019-01-16T04:57:23.034Z,9.00
2019-01-16T05:00:17.457Z,7.53
2019-01-16T05:03:17.841Z,11.93
2019-01-16T05:05:54.212Z,9.43
2019-01-16T05:08:47.045Z,7.90
2019-01-16T05:11:43.271Z,8.53
2019-01-16T05:14:28.793Z,8.30
2019-01-16T05:17:14.628Z,9.87
2019-01-16T05:19:59.799Z,10.50
2019-01-16T05:22:54.752Z,8.30
2019-01-16T05:25:41.657Z,8.70
2019-01-16T05:28:46.667Z,6.37
2019-01-16T05:31:35.600Z,8.37
2019-01-16T05:34:33.527Z,8.67
2019-01-16T05:37:28.096Z,7.93
2019-01-16T05:40:27.380Z,9.27
2019-01-16T05:43:26.317Z,9.30
2019-01-16T05:46:11.469Z,8.50
2019-01-16T05:48:54.848Z,10.73
2019-01-16T05:51:31.673Z,5.60
2019-01-16T05:54:17.268Z,9.67
2019-01-16T05:57:10.265Z,10.00
2019-01-16T05:59:57.326Z,6.30
2019-01-16T06:02:45.171Z,7.03
2019-01-16T06:05:38.131Z,6.93
2019-01-16T06:08:23.817Z,11.30
2019-01-16T06:11:20.079Z,6.77
2019-01-16T06:14:07.849Z,8.07
2019-01-16T06:16:54.630Z,7.33
2019-01-16T06:19:40.481Z,10.60
2019-01-16T06:22:36.871Z,7.33
2019-01-16T06:25:25.582Z,9.80
2019-01-16T06:28:18.043Z,6.03
2019-01-16T06:31:11.073Z,10.40
2019-01-16T06:33:56.848Z,9.00
2019-01-16T06:36:43.738Z,7.53
2019-01-16T06:39:33.514Z,10.97
2019-01-16T06:42:21.924Z,10.20
2019-01-16T06:45:08.889Z,9.77
2019-01-16T06:48:07.950Z,6.80
2019-01-16T06:50:57.807Z,11.53
2019-01-16T06:53:39.090Z,10.80
2019-01-16T06:56:24.978Z,10.27
2019-01-16T06:59:12.170Z,11.83
2019-01-16T07:02:04.920Z,8.03
2019-01-16T07:04:51.919Z,9.30
2019-01-16T07:07:41.926Z,11.73
2019-01-16T07:10:32.136Z,9.47
2019-01-16T07:13:19.103Z,7.93
2019-01-16T07:16:12.375Z,11.80
2019-01-16T07:18:58.502Z,8.23
2019-01-16T07:21:40.914Z,9.43
2019-01-16T07:24:29.022Z,9.57
2019-01-16T07:27:32.414Z,9.47
2019-01-16T07:30:28.431Z,10.60
2019-01-16T07:33:15.199Z,8.73
2019-01-16T07:36:04.912Z,11.80
2019-01-16T07:39:00.984Z,8.47
2019-01-16T07:41:45.605Z,12.73
2019-01-16T07:44:35.863Z,11.53
2019-01-16T07:47:12.472Z,7.17
2019-01-16T07:49:58.421Z,8.27
2019-01-16T07:52:48.461Z,9.03
2019-01-16T07:55:44.768Z,7.83
2019-01-16T07:58:31.776Z,13.90
2019-01-16T08:01:17.333Z,15.53
2019-01-16T08:04:03.318Z,12.00
2019-01-16T08:06:49.162Z,9.20
2019-01-16T08:09:35.213Z,12.20
2019-01-16T08:12:17.436Z,9.47
2019-01-16T08:15:19.800Z,13.27
2019-01-16T08:18:01.965Z,6.87
2019-01-16T08:20:48.981Z,10.97
2019-01-16T08:23:27.062Z,6.97
2019-01-16T08:26:09.675Z,11.93
2019-01-16T08:28:52.160Z,8.50
2019-01-16T08:31:47.521Z,6.80
2019-01-16T08:34:33.121Z,8.13
2019-01-16T08:37:18.119Z,8.20
2019-01-16T08:39:58.024Z,11.73
2019-01-16T08:42:57.011Z,9.70
2019-01-16T08:45:50.056Z,10.17
2019-01-16T08:48:51.087Z,10.27
2019-01-16T08:51:54.805Z,7.40
2019-01-16T08:54:41.689Z,7.03
2019-01-16T08:57:28.720Z,10.23
2019-01-16T09:00:21.939Z,11.07
2019-01-16T09:03:18.343Z,8.93
2019-01-16T09:06:11.382Z,8.70
2019-01-16T09:08:57.106Z,11.63
2019-01-16T09:11:47.132Z,10.20
2019-01-16T09:14:33.013Z,8.47
2019-01-16T09:17:29.058Z,13.10
2019-01-16T09:20:14.977Z,7.60
2019-01-16T09:23:00.816Z,7.83
2019-01-16T09:25:57.324Z,11.10
2019-01-16T09:28:42.747Z,10.30
2019-01-16T09:31:48.128Z,8.50
2019-01-16T09:34:35.638Z,16.13
2019-01-16T09:37:21.207Z,8.60
2019-01-16T09:40:17.240Z,7.03
2019-01-16T09:43:13.384Z,6.93
2019-01-16T09:45:52.999Z,8.17
2019-01-16T09:48:57.901Z,6.80
2019-01-16T09:51:36.329Z,7.27
2019-01-16T09:54:18.643Z,8.57
2019-01-16T09:57:04.363Z,6.63
2019-01-16T10:00:08.106Z,10.37
2019-01-16T10:03:03.249Z,10.97
2019-01-16T10:05:50.220Z,10.00
2019-01-16T10:08:28.865Z,11.00
2019-01-16T10:11:15.831Z,8.57
2019-01-16T10:13:56.444Z,10.43
2019-01-16T10:16:43.427Z,8.87
2019-01-16T10:19:35.085Z,11.60
2019-01-16T10:22:27.002Z,9.43
2019-01-16T10:25:10.187Z,10.77
2019-01-16T10:28:06.143Z,8.90
2019-01-16T10:30:59.428Z,13.97
2019-01-16T10:33:46.536Z,8.23
2019-01-16T10:36:25.993Z,8.43
2019-01-16T10:39:21.972Z,8.43
2019-01-16T10:42:24.050Z,5.50
2019-01-16T10:45:01.024Z,8.77
2019-01-16T10:47:46.644Z,5.73
2019-01-16T10:50:32.534Z,6.60
2019-01-16T10:53:19.536Z,7.40
2019-01-16T10:56:05.104Z,18.17
2019-01-16T10:58:55.181Z,5.43
2019-01-16T11:01:42.149Z,4.27
2019-01-16T11:04:16.847Z,4.20
2019-01-16T11:07:02.633Z,3.20
2019-01-16T11:10:01.980Z,4.90
2019-01-16T11:12:48.976Z,6.70
2019-01-16T11:15:31.832Z,4.87
2019-01-16T11:18:17.699Z,4.43
2019-01-16T11:21:16.974Z,5.57
2019-01-16T11:24:19.365Z,6.77
2019-01-16T11:27:12.552Z,4.83
2019-01-16T11:30:05.898Z,6.63
2019-01-16T11:32:45.633Z,5.80
2019-01-16T11:35:30.114Z,6.50
2019-01-16T11:38:11.049Z,4.73
2019-01-16T11:40:56.721Z,9.27
2019-01-16T11:43:58.657Z,6.17
2019-01-16T11:46:54.745Z,5.13
2019-01-16T11:49:41.625Z,6.57
2019-01-16T11:52:34.413Z,4.83
2019-01-16T11:55:27.457Z,8.17
2019-01-16T11:58:05.757Z,5.50
2019-01-16T12:00:46.964Z,8.57
2019-01-16T12:03:43.632Z,5.17
2019-01-16T12:06:30.410Z,6.57
2019-01-16T12:09:16.836Z,7.87
2019-01-16T12:12:11.200Z,5.87
2019-01-16T12:14:51.670Z,5.77
2019-01-16T12:17:38.730Z,10.27
2019-01-16T12:20:41.490Z,9.27
2019-01-16T12:23:31.658Z,7.33
2019-01-16T12:26:23.324Z,8.20
2019-01-16T12:29:11.924Z,12.37
2019-01-16T12:31:51.874Z,7.57
2019-01-16T12:34:39.767Z,6.63
2019-01-16T12:37:32.892Z,5.47
2019-01-16T12:40:28.946Z,8.07
2019-01-16T12:43:22.091Z,6.20
2019-01-16T12:46:19.586Z,5.93
2019-01-16T12:49:08.687Z,10.80
2019-01-16T12:51:58.569Z,16.53
2019-01-16T12:54:51.646Z,8.83
2019-01-16T12:57:37.515Z,5.47
2019-01-16T13:00:41.452Z,6.00
2019-01-16T13:03:28.494Z,7.13
2019-01-16T13:06:27.329Z,6.57
2019-01-16T13:09:06.868Z,5.47
2019-01-16T13:12:00.009Z,6.03
2019-01-16T13:15:02.498Z,6.57
2019-01-16T13:17:55.393Z,6.47
2019-01-16T13:20:42.439Z,7.83
2019-01-16T13:23:25.550Z,7.50
2019-01-16T13:26:24.554Z,8.00
2019-01-16T13:29:23.772Z,7.60
2019-01-16T13:32:09.671Z,7.37
2019-01-16T13:34:55.506Z,5.47
2019-01-16T13:37:33.072Z,7.07
2019-01-16T13:40:38.504Z,4.53
2019-01-16T13:43:24.083Z,5.23
2019-01-16T13:46:05.325Z,7.97
2019-01-16T13:49:01.104Z,7.73
2019-01-16T13:51:46.966Z,5.53
2019-01-16T13:54:49.044Z,7.23
2019-01-16T13:57:38.968Z,5.77
2019-01-16T14:00:30.951Z,5.23
2019-01-16T14:03:23.937Z,5.13
2019-01-16T14:06:20.021Z,8.60
2019-01-16T14:09:02.179Z,4.10
2019-01-16T14:11:45.015Z,6.53
2019-01-16T14:14:30.901Z,6.30
2019-01-16T14:17:14.327Z,6.77
2019-01-16T14:20:13.347Z,4.77
2019-01-16T14:22:49.413Z,5.00
2019-01-16T14:25:36.376Z,4.93
2019-01-16T14:28:41.500Z,4.13
2019-01-16T14:31:34.417Z,4.43
2019-01-16T14:34:19.963Z,6.13
2019-01-16T14:37:06.946Z,4.53
2019-01-16T14:39:52.728Z,3.07
2019-01-16T14:42:45.893Z,7.40
2019-01-16T14:45:32.903Z,3.63
2019-01-16T14:48:19.905Z,10.13
2019-01-16T14:51:05.127Z,4.17
2019-01-16T14:53:52.263Z,7.33
2019-01-16T14:56:51.933Z,8.03
2019-01-16T14:59:41.751Z,4.90
2019-01-16T15:02:44.092Z,5.67
2019-01-16T15:05:31.319Z,4.60
2019-01-16T15:08:33.072Z,5.50
2019-01-16T15:11:22.603Z,6.23
2019-01-16T15:14:10.919Z,5.47
2019-01-16T15:17:00.931Z,7.37
2019-01-16T15:19:40.408Z,8.37
2019-01-16T15:22:45.791Z,5.30
2019-01-16T15:25:32.139Z,4.63
2019-01-16T15:28:14.615Z,3.47
2019-01-16T15:31:07.688Z,2.97
2019-01-16T15:33:53.637Z,6.93
2019-01-16T15:36:39.463Z,3.83
2019-01-16T15:39:29.911Z,6.07
2019-01-16T15:42:16.192Z,7.13
2019-01-16T15:45:09.399Z,9.80
2019-01-16T15:47:55.199Z,5.77
2019-01-16T15:50:43.324Z,11.60
2019-01-16T15:53:39.555Z,13.70
2019-01-16T15:56:32.549Z,11.77
2019-01-16T15:59:25.423Z,6.53
2019-01-16T16:02:11.487Z,15.83
2019-01-16T16:05:01.471Z,10.37
2019-01-16T16:08:03.593Z,7.47
2019-01-16T16:10:50.601Z,7.27
2019-01-16T16:13:52.904Z,9.93
2019-01-16T16:16:49.776Z,10.30
2019-01-16T16:19:46.081Z,13.77
2019-01-16T16:22:41.911Z,14.97
2019-01-16T16:25:36.359Z,13.90
2019-01-16T16:28:21.964Z,13.30
2019-01-16T16:31:21.321Z,14.80
2019-01-16T16:34:20.402Z,14.07
2019-01-16T16:37:06.099Z,15.63
2019-01-16T16:40:08.490Z,12.23
2019-01-16T16:42:54.342Z,12.70
2019-01-16T16:46:00.084Z,11.23
2019-01-16T16:48:51.964Z,14.57
2019-01-16T16:51:38.085Z,13.57
2019-01-16T16:54:27.771Z,11.80
2019-01-16T16:57:13.552Z,12.03
2019-01-16T16:59:57.545Z,12.67
2019-01-16T17:02:43.215Z,16.47
2019-01-16T17:05:42.372Z,15.03
2019-01-16T17:08:28.096Z,12.87
2019-01-16T17:11:18.122Z,17.13
2019-01-16T17:13:53.187Z,16.73
2019-01-16T17:16:32.267Z,28.30
2019-01-16T17:22:20.232Z,15.53
2019-01-16T17:25:05.999Z,11.73
2019-01-16T17:27:51.936Z,13.90
2019-01-16T17:30:43.542Z,12.20
2019-01-16T17:33:36.868Z,13.63
2019-01-16T17:36:17.756Z,17.13
2019-01-16T17:39:11.055Z,15.33
2019-01-16T17:41:47.617Z,18.10
2019-01-16T17:44:43.421Z,18.40
2019-01-16T17:47:22.332Z,18.63
2019-01-16T17:50:09.464Z,16.53
2019-01-16T17:53:02.724Z,12.37
2019-01-16T17:55:50.293Z,13.37
2019-01-16T17:58:47.072Z,11.53
2019-01-16T18:01:34.878Z,10.80
2019-01-16T18:04:21.831Z,9.87
2019-01-16T18:07:07.742Z,13.40
2019-01-16T18:09:53.551Z,13.33
2019-01-16T18:12:46.737Z,11.90
2019-01-16T18:15:42.762Z,10.57
2019-01-16T18:18:35.591Z,15.33
2019-01-16T18:21:12.903Z,13.07
2019-01-16T18:23:58.791Z,17.27
2019-01-16T18:26:45.801Z,17.00
2019-01-16T18:29:28.100Z,15.80
2019-01-16T18:32:17.864Z,16.13
2019-01-16T18:35:19.912Z,18.33
2019-01-16T18:38:21.890Z,18.07
2019-01-16T18:41:14.719Z,13.87
2019-01-16T18:44:07.559Z,15.70
2019-01-16T18:46:56.590Z,14.70
2019-01-16T18:49:41.286Z,16.33
2019-01-16T18:52:34.348Z,15.10
2019-01-16T18:55:29.996Z,15.77
2019-01-16T18:58:07.538Z,14.17
2019-01-16T19:00:45.537Z,12.37
2019-01-16T19:03:35.396Z,11.03
2019-01-16T19:06:25.034Z,15.33
2019-01-16T19:09:08.976Z,12.30
2019-01-16T19:11:54.765Z,11.40
2019-01-16T19:14:30.782Z,16.03
2019-01-16T19:17:23.990Z,14.70
2019-01-16T19:20:08.199Z,15.93
2019-01-16T19:22:46.332Z,16.73
2019-01-16T19:25:39.213Z,16.37
2019-01-16T19:28:29.244Z,12.13
2019-01-16T19:31:15.412Z,11.80
2019-01-16T19:34:00.315Z,10.83
2019-01-16T19:36:45.964Z,14.40
2019-01-16T19:39:40.010Z,13.10
2019-01-16T19:42:25.748Z,15.47
2019-01-16T19:45:11.552Z,15.80
2019-01-16T19:47:58.273Z,10.60
2019-01-16T19:50:45.266Z,12.77
2019-01-16T19:53:22.707Z,12.10
2019-01-16T19:56:12.448Z,10.53
2019-01-16T19:59:05.343Z,11.77
2019-01-16T20:01:50.953Z,13.80
2019-01-16T20:04:56.279Z,13.97
2019-01-16T20:07:38.878Z,16.23
2019-01-16T20:10:43.752Z,20.70
2019-01-16T20:13:18.644Z,17.97
2019-01-16T20:16:14.558Z,12.47
2019-01-16T20:18:54.426Z,11.90
2019-01-16T20:21:44.427Z,11.10
2019-01-16T20:24:26.700Z,13.73
2019-01-16T20:27:12.722Z,13.53
2019-01-16T20:29:58.560Z,12.83
2019-01-16T20:32:57.801Z,14.30
2019-01-16T20:35:46.198Z,12.50
2019-01-16T20:38:33.199Z,16.50
2019-01-16T20:41:35.332Z,13.30
2019-01-16T20:44:21.011Z,13.17
2019-01-16T20:47:08.043Z,11.70
2019-01-16T20:49:44.872Z,15.13
2019-01-16T20:52:31.925Z,12.70
2019-01-16T20:55:19.734Z,11.10
2019-01-16T20:58:11.285Z,12.03
2019-01-16T21:00:56.894Z,12.87
2019-01-16T21:03:37.142Z,13.50
2019-01-16T21:06:25.168Z,12.73
2019-01-16T21:09:10.573Z,15.53
2019-01-16T21:11:54.893Z,11.73
2019-01-16T21:14:36.860Z,15.43
2019-01-16T21:17:22.484Z,11.37
2019-01-16T21:20:07.616Z,11.20
2019-01-16T21:23:03.912Z,16.00
2019-01-16T21:25:50.111Z,13.43
2019-01-16T21:28:43.276Z,13.80
2019-01-16T21:31:26.458Z,10.07
2019-01-16T21:34:22.595Z,12.03
2019-01-16T21:37:09.582Z,11.70
2019-01-16T21:40:02.276Z,12.33
2019-01-16T21:42:48.056Z,9.93
2019-01-16T21:45:53.352Z,13.37
2019-01-16T21:48:32.256Z,12.30
2019-01-16T21:51:19.252Z,14.57
2019-01-16T21:53:55.538Z,14.40
2019-01-16T21:56:45.458Z,14.90
2019-01-16T21:59:20.585Z,14.50
2019-01-16T22:02:10.352Z,15.87
2019-01-16T22:04:56.187Z,14.97
2019-01-16T22:07:33.434Z,17.73
2019-01-16T22:10:27.685Z,15.90
2019-01-16T22:13:10.894Z,15.53
2019-01-16T22:16:07.124Z,17.87
2019-01-16T22:18:56.886Z,16.53
2019-01-16T22:21:43.917Z,16.30
2019-01-16T22:24:23.194Z,17.63
2019-01-16T22:27:09.070Z,17.83
2019-01-16T22:29:55.165Z,16.30
2019-01-16T22:32:54.387Z,16.87
2019-01-16T22:35:44.387Z,21.50
2019-01-16T22:38:40.638Z,16.57
2019-01-16T22:41:33.408Z,15.57
2019-01-16T22:44:12.979Z,13.13
2019-01-16T22:46:59.934Z,12.63
2019-01-16T22:49:47.026Z,14.37
2019-01-16T22:52:33.839Z,17.57
2019-01-16T22:55:29.056Z,12.53
2019-01-16T22:58:08.123Z,14.50
2019-01-16T23:01:18.061Z,15.87
2019-01-16T23:04:13.677Z,15.27
2019-01-16T23:07:00.655Z,14.60
2019-01-16T23:09:47.619Z,15.07
2019-01-16T23:12:33.652Z,17.63
2019-01-16T23:15:55.415Z,14.57
2019-01-16T23:18:57.159Z,18.83
2019-01-16T23:21:43.055Z,16.43
2019-01-16T23:24:33.078Z,16.10
2019-01-16T23:27:22.781Z,12.93
2019-01-16T23:30:08.322Z,15.60
2019-01-16T23:32:53.804Z,17.93
2019-01-16T23:35:39.531Z,17.70
2019-01-16T23:38:19.088Z,14.33
2019-01-16T23:41:21.400Z,14.03
2019-01-16T23:44:08.360Z,14.43
2019-01-16T23:47:01.299Z,17.93
2019-01-16T23:49:51.460Z,16.00
2019-01-16T23:52:35.912Z,17.60
2019-01-16T23:55:31.166Z,16.13
2019-01-16T23:58:17.100Z,17.10
